Detall de PIREP

Printer-friendly versionPDF version

[2013/01/10 08:53:00]
Flight IATA:CT3244
Pilot Number:042
Company ICAO:CAT
Aircraft Type:B744/E
PAX:185
Departing Airport: LEPA
Destination Airport: ESSA
Alternate Airport:ESGG
Online: VATSIM
Route:ISTER UN851 MAKEL N851 MIKNA Z226 NILUG
Flight Level:F350
No Slew and time accel
No pause
Crash detect
Detect pilot in Cockpit between each 30 and 45 minutes
08:53 Zero fuel Weight: 466688 Lbs, Fuel Weight: 255291 Lbs
08:53 VATSIM:LEPA 100830Z 27011KT 9999 FEW020 15/09 Q1020 NOSIG
08:53 VATSIM:ESSA 100820Z 36012KT 9999 -SN SCT014 BKN050 M02/M03 Q1007 R01L/710163 R01R///99// R08/710167 TEMPO 2000 SN VV012
08:53 VOICE CATALONIAN
08:55 Parking Brakes off
09:02 Take-off
09:02 Take off Weight: 719580 Lbs
09:02 Wind: 232º @ 008 Knots Heading: 238º
09:02 POS N39º 33´ 09´´ E002º 43´ 21´´
09:02 Gear Up: 205 Knots
09:02 Flaps:4 at 205 Knots
09:02 Flaps:3 at 215 Knots
09:03 Flaps:2 at 180 Knots
09:03 Flaps:1 at 238 Knots
09:04 Flaps:0 at 255 Knots
09:04 Flaps:1 at 253 Knots
09:04 Flaps:0 at 252 Knots
09:17 Wind:313º@065 Knots Heading: 052º Ground Speed: 502 Knots Altitude 28638 ft
09:26 TOC
09:26 Fuel Weight: 233744 Lb
09:32 Wind:310º@077 Knots Heading: 052º Ground Speed: 500 Knots Altitude 35078 ft
09:47 Wind:308º@070 Knots Heading: 014º Ground Speed: 454 Knots Altitude 35042 ft
10:02 Wind:319º@064 Knots Heading: 012º Ground Speed: 441 Knots Altitude 35039 ft
10:17 Wind:331º@056 Knots Heading: 350º Ground Speed: 421 Knots Altitude 35898 ft
10:32 Wind:320º@047 Knots Heading: 014º Ground Speed: 444 Knots Altitude 36072 ft
10:47 Wind:318º@046 Knots Heading: 001º Ground Speed: 440 Knots Altitude 36020 ft
11:02 Wind:319º@041 Knots Heading: 011º Ground Speed: 449 Knots Altitude 36975 ft
11:17 Wind:320º@035 Knots Heading: 017º Ground Speed:454 Knots Altitude 36870 ft
11:32 Wind:320º@025 Knots Heading: 024º Ground Speed: 456 Knots Altitude 36879 ft
11:47 Wind:315º@015 Knots Heading: 034º Ground Speed: 462 Knots Altitude 36850 ft
12:02 Wind:286º@006 Knots Heading: 037º Ground Speed: 467 Knots Altitude 36847 ft
12:06 TOD
12:06 Fuel Weight: 170918 Lb
12:17 Wind:102º@008 Knots Heading: 355º Ground Speed: 327 Knots Altitude 14366 ft
12:20 Flaps:1 at 235 Knots
12:21 Flaps:2 at 222 Knots
12:22 Flaps:3 at 197 Knots
12:26 Gear Down: 182 Knots
12:26 Flaps:4 at 178 Knots
12:27 Flaps:5 at 167 Knots
12:27 Flaps:6 at 158 Knots
12:30 TouchDown:Rate -149 ft/min Speed: 148 Knots
12:30 VATSIM:ESSA 101150Z 02015KT 9999 BKN011 M02/M03 Q1008 R01L/710163 R01R///99// R08/71016 NOSIG
12:30 Land
12:30 Wind:317º@006 Knots
12:30 Heading: 010º
12:30 Flight Duration: 03:28
12:30 Landing Weight: 631646 Lbs
12:30 POS N59º 39´ 06´´ E017º 55´ 07´´
12:33 Parking brakes on
12:33 Block to Block Duration: 03:38
12:33 Final Fuel: 164303 Lbls
12:33 Spent Fuel: 90987 Lbls
12:33 Flight Length: 1379 NM
12:33 TOD Land Length: 113 NM

Exportar CSV

Powered by Drupal - Modified by Danger4k